Norfolk Downs, Massachusetts
Current Conditions -  °F | °C
As of 8:54 AM on Monday 22 Dec 2014 (Local Time) from KBOS Reporting Station
Broken Clouds Broken Clouds  
Wind Chill: 30°   Ceiling: 1100
Heat Index: 35°   Visibility: 10mi
Dew Point: 29°   Wind: 6mph
Humidity: 78%   Direction: 10°N
Pressure: 30.4"   Gusts: NA
Location:  42.2866°N, 71.0248°W
Report Text: KBOS 221354Z 01005KT 10SM BKN011 BKN055 02/M02 A3040 RMK AO2 SLP292 T00171017
Loading
Personal Weather Stations






























Interactive Weather Map New forecast layout! Learn more

10-Day Weather Forecast

Advertisements
Track Severe Weather on mobile